createdAt,value
2019-05-25T00:01:24.967Z,100.00
2019-05-25T00:03:54.477Z,100.00
2019-05-25T00:06:23.972Z,100.00
2019-05-25T00:08:53.520Z,100.00
2019-05-25T00:11:23.145Z,100.00
2019-05-25T00:13:52.648Z,100.00
2019-05-25T00:16:22.187Z,100.00
2019-05-25T00:18:51.667Z,100.00
2019-05-25T00:21:21.178Z,100.00
2019-05-25T00:24:12.111Z,100.00
2019-05-25T00:26:35.266Z,100.00
2019-05-25T00:29:04.758Z,100.00
2019-05-25T00:31:34.260Z,100.00
2019-05-25T00:34:03.731Z,100.00
2019-05-25T00:36:33.198Z,100.00
2019-05-25T00:39:02.693Z,100.00
2019-05-25T00:41:32.166Z,100.00
2019-05-25T00:44:01.700Z,100.00
2019-05-25T00:46:31.142Z,100.00
2019-05-25T00:49:01.362Z,100.00
2019-05-25T00:51:30.839Z,100.00
2019-05-25T00:54:00.327Z,100.00
2019-05-25T00:56:29.816Z,100.00
2019-05-25T00:58:59.308Z,100.00
2019-05-25T01:01:28.803Z,100.00
2019-05-25T01:03:58.261Z,100.00
2019-05-25T01:06:27.763Z,100.00
2019-05-25T01:08:57.237Z,100.00
2019-05-25T01:11:26.842Z,100.00
2019-05-25T01:13:56.272Z,100.00
2019-05-25T01:16:27.000Z,100.00
2019-05-25T01:18:56.493Z,100.00
2019-05-25T01:21:25.983Z,100.00
2019-05-25T01:23:55.483Z,100.00
2019-05-25T01:26:25.004Z,100.00
2019-05-25T01:28:55.633Z,100.00
2019-05-25T01:31:25.113Z,100.00
2019-05-25T01:33:54.569Z,100.00
2019-05-25T01:36:24.062Z,100.00
2019-05-25T01:38:53.552Z,100.00
2019-05-25T01:41:23.033Z,100.00
2019-05-25T01:43:52.510Z,100.00
2019-05-25T01:46:21.995Z,100.00
2019-05-25T01:48:51.607Z,100.00
2019-05-25T01:51:40.430Z,100.00
2019-05-25T01:54:09.927Z,100.00
2019-05-25T01:56:39.414Z,100.00
2019-05-25T01:59:28.238Z,100.00
2019-05-25T02:01:57.731Z,100.00
2019-05-25T02:04:27.205Z,100.00
2019-05-25T02:06:56.712Z,100.00
2019-05-25T02:09:27.437Z,100.00
2019-05-25T02:11:56.904Z,100.00
2019-05-25T02:14:26.393Z,100.00
2019-05-25T02:16:55.890Z,100.00
2019-05-25T02:19:25.379Z,100.00
2019-05-25T02:21:54.868Z,100.00
2019-05-25T02:24:24.366Z,100.00
2019-05-25T02:26:53.897Z,100.00
2019-05-25T02:29:23.367Z,100.00
2019-05-25T02:31:52.838Z,100.00
2019-05-25T02:34:22.395Z,100.00
2019-05-25T02:36:51.877Z,100.00
2019-05-25T02:39:21.380Z,100.00
2019-05-25T02:41:50.846Z,100.00
2019-05-25T02:44:20.381Z,100.00
2019-05-25T02:46:49.877Z,100.00
2019-05-25T02:49:19.375Z,100.00
2019-05-25T02:51:48.853Z,100.00
2019-05-25T02:54:18.356Z,100.00
2019-05-25T02:56:47.853Z,100.00
2019-05-25T02:59:17.338Z,100.00
2019-05-25T03:01:46.826Z,100.00
2019-05-25T03:04:16.892Z,100.00
2019-05-25T03:06:46.658Z,100.00
2019-05-25T03:09:18.300Z,100.00
2019-05-25T03:11:49.393Z,100.00
2019-05-25T03:14:19.820Z,100.00
2019-05-25T03:16:49.321Z,100.00
2019-05-25T03:19:18.834Z,100.00
2019-05-25T03:24:56.097Z,100.00
2019-05-25T03:27:25.600Z,100.00
2019-05-25T03:29:55.060Z,100.00
2019-05-25T03:32:24.549Z,100.00
2019-05-25T03:34:54.040Z,100.00
2019-05-25T03:37:23.536Z,100.00
2019-05-25T03:39:53.037Z,100.00
2019-05-25T03:42:22.510Z,100.00
2019-05-25T03:44:52.056Z,100.00
2019-05-25T03:47:21.545Z,100.00
2019-05-25T03:49:51.028Z,100.00
2019-05-25T03:52:20.492Z,100.00
2019-05-25T03:54:49.978Z,100.00
2019-05-25T03:57:19.473Z,100.00
2019-05-25T03:59:48.950Z,100.00
2019-05-25T04:02:18.451Z,100.00
2019-05-25T04:04:47.928Z,100.00
2019-05-25T04:07:17.414Z,100.00
2019-05-25T04:09:46.894Z,100.00
2019-05-25T04:12:16.399Z,100.00
2019-05-25T04:14:45.893Z,100.00
2019-05-25T04:17:15.389Z,100.00
2019-05-25T04:19:44.878Z,100.00
2019-05-25T04:22:14.350Z,100.00
2019-05-25T04:24:43.849Z,100.00
2019-05-25T04:27:13.321Z,100.00
2019-05-25T04:29:44.089Z,100.00
2019-05-25T04:32:13.596Z,100.00
2019-05-25T04:34:43.074Z,100.00
2019-05-25T04:37:12.564Z,100.00
2019-05-25T04:39:42.061Z,100.00
2019-05-25T04:42:12.614Z,100.00
2019-05-25T04:44:42.103Z,100.00
2019-05-25T04:47:26.080Z,100.00
2019-05-25T04:49:42.800Z,100.00
2019-05-25T04:52:12.341Z,100.00
2019-05-25T04:54:41.835Z,100.00
2019-05-25T04:57:11.357Z,100.00
2019-05-25T04:59:40.841Z,100.00
2019-05-25T05:02:10.322Z,100.00
2019-05-25T05:04:39.828Z,100.00
2019-05-25T05:07:09.950Z,100.00
2019-05-25T05:09:39.437Z,100.00
2019-05-25T05:12:08.942Z,100.00
2019-05-25T05:14:38.433Z,100.00
2019-05-25T05:17:07.937Z,100.00
2019-05-25T05:19:38.238Z,100.00
2019-05-25T05:22:07.721Z,100.00
2019-05-25T05:24:37.234Z,100.00
2019-05-25T05:27:06.725Z,100.00
2019-05-25T05:29:55.547Z,100.00
2019-05-25T05:32:27.885Z,100.00
2019-05-25T05:34:56.325Z,100.00
2019-05-25T05:37:26.624Z,100.00
2019-05-25T05:39:57.302Z,100.00
2019-05-25T05:45:49.079Z,100.00
2019-05-25T05:48:21.190Z,100.00
2019-05-25T05:50:52.966Z,92.91
2019-05-25T05:53:23.966Z,83.78
2019-05-25T05:55:53.473Z,80.44
2019-05-25T05:58:22.998Z,76.63
2019-05-25T06:00:52.475Z,77.76
2019-05-25T06:03:21.934Z,58.99
2019-05-25T06:05:51.421Z,67.54
2019-05-25T06:08:20.907Z,74.08
2019-05-25T06:10:50.418Z,87.06
2019-05-25T06:13:19.936Z,87.30
2019-05-25T06:15:49.430Z,81.08
2019-05-25T06:18:18.924Z,68.37
2019-05-25T06:20:48.428Z,63.98
2019-05-25T06:23:17.984Z,79.27
2019-05-25T06:25:47.480Z,80.49
2019-05-25T06:28:22.098Z,65.70
2019-05-25T06:30:49.427Z,58.13
2019-05-25T06:33:18.940Z,55.14
2019-05-25T06:35:48.426Z,55.22
2019-05-25T06:38:17.942Z,52.46
2019-05-25T06:40:47.507Z,74.10
2019-05-25T06:43:16.999Z,80.62
2019-05-25T06:45:46.499Z,75.91
2019-05-25T06:48:15.989Z,76.46
2019-05-25T06:50:45.466Z,74.50
2019-05-25T06:53:14.958Z,62.80
2019-05-25T06:55:45.118Z,54.22
2019-05-25T06:58:14.663Z,60.57
2019-05-25T07:00:45.213Z,80.94
2019-05-25T07:03:14.684Z,88.53
2019-05-25T07:05:44.242Z,87.14
2019-05-25T07:08:13.781Z,72.87
2019-05-25T07:10:43.275Z,64.00
2019-05-25T07:13:13.064Z,81.13
2019-05-25T07:15:42.558Z,94.84
2019-05-25T07:18:12.034Z,96.89
2019-05-25T07:20:41.593Z,93.62
2019-05-25T07:23:11.073Z,92.86
2019-05-25T07:25:40.561Z,91.54
2019-05-25T07:28:10.078Z,90.75
2019-05-25T07:30:39.715Z,73.09
2019-05-25T07:33:09.268Z,58.50
2019-05-25T07:35:38.749Z,64.63
2019-05-25T07:38:08.241Z,55.90
2019-05-25T07:40:37.731Z,68.79
2019-05-25T07:43:07.239Z,75.53
2019-05-25T07:45:37.809Z,82.39
2019-05-25T07:48:07.287Z,86.53
2019-05-25T07:50:36.779Z,88.64
2019-05-25T07:53:06.264Z,95.16
2019-05-25T07:55:35.781Z,94.72
2019-05-25T07:58:16.700Z,87.33
2019-05-25T08:00:36.636Z,75.99
2019-05-25T08:03:06.131Z,68.40
2019-05-25T08:05:35.665Z,80.94
2019-05-25T08:08:05.634Z,89.27
2019-05-25T08:10:35.238Z,97.37
2019-05-25T08:13:04.743Z,88.76
2019-05-25T08:15:34.287Z,68.04
2019-05-25T08:18:03.780Z,58.37
2019-05-25T08:20:33.245Z,51.06
2019-05-25T08:23:02.732Z,55.66
2019-05-25T08:25:32.222Z,64.69
2019-05-25T08:28:01.713Z,53.88
2019-05-25T08:30:31.205Z,43.00
2019-05-25T08:33:00.685Z,36.28
2019-05-25T08:35:30.234Z,37.65
2019-05-25T08:37:59.725Z,38.21
2019-05-25T08:40:29.213Z,40.32
2019-05-25T08:42:58.691Z,39.52
2019-05-25T08:45:28.192Z,35.21
2019-05-25T08:47:57.701Z,39.43
2019-05-25T08:50:37.852Z,30.19
2019-05-25T08:52:58.492Z,34.02
2019-05-25T08:55:28.129Z,34.36
2019-05-25T08:57:57.653Z,27.05
2019-05-25T09:00:27.193Z,27.65
2019-05-25T09:02:56.661Z,29.32
2019-05-25T09:05:26.171Z,29.89
2019-05-25T09:07:55.687Z,31.11
2019-05-25T09:10:25.297Z,32.51
2019-05-25T09:12:55.374Z,37.21
2019-05-25T09:15:24.964Z,33.75
2019-05-25T09:17:54.465Z,37.58
2019-05-25T09:20:23.960Z,34.46
2019-05-25T09:22:53.439Z,37.11
2019-05-25T09:25:22.941Z,36.52
2019-05-25T09:27:52.409Z,32.38
2019-05-25T09:30:22.625Z,39.19
2019-05-25T09:32:52.188Z,37.08
2019-05-25T09:35:21.661Z,40.89
2019-05-25T09:37:51.132Z,41.31
2019-05-25T09:40:20.865Z,41.27
2019-05-25T09:42:50.506Z,46.39
2019-05-25T09:45:20.223Z,35.05
2019-05-25T09:47:49.705Z,43.72
2019-05-25T09:50:20.056Z,54.28
2019-05-25T09:52:49.553Z,53.90
2019-05-25T09:55:19.241Z,46.30
2019-05-25T09:57:48.734Z,41.56
2019-05-25T10:00:20.288Z,41.54
2019-05-25T10:02:49.881Z,34.14
2019-05-25T10:05:19.636Z,36.56
2019-05-25T10:07:49.132Z,51.83
2019-05-25T10:10:18.948Z,59.74
2019-05-25T10:12:48.429Z,54.29
2019-05-25T10:15:18.089Z,67.41
2019-05-25T10:17:47.566Z,46.29
2019-05-25T10:20:17.482Z,32.35
2019-05-25T10:22:46.972Z,32.73
2019-05-25T10:25:17.493Z,46.41
2019-05-25T10:28:06.331Z,37.82
2019-05-25T10:30:35.979Z,34.16
2019-05-25T10:33:05.553Z,34.87
2019-05-25T10:35:35.049Z,37.39
2019-05-25T10:38:23.877Z,36.06
2019-05-25T10:41:12.697Z,44.82
2019-05-25T10:43:42.213Z,55.75
2019-05-25T10:46:11.704Z,53.01
2019-05-25T10:48:41.184Z,54.45
2019-05-25T10:51:10.677Z,39.80
2019-05-25T10:53:40.158Z,50.93
2019-05-25T10:56:09.652Z,62.22
2019-05-25T10:58:39.121Z,57.96
2019-05-25T11:01:08.621Z,48.29
2019-05-25T11:03:38.107Z,55.41
2019-05-25T11:06:07.681Z,57.80
2019-05-25T11:08:37.166Z,61.44
2019-05-25T11:11:06.619Z,55.76
2019-05-25T11:13:36.110Z,63.13
2019-05-25T11:16:05.678Z,55.84
2019-05-25T11:18:35.235Z,40.85
2019-05-25T11:21:04.729Z,36.38
2019-05-25T11:23:34.223Z,37.95
2019-05-25T11:26:03.713Z,36.65
2019-05-25T11:28:33.204Z,42.79
2019-05-25T11:31:02.812Z,46.12
2019-05-25T11:33:32.317Z,40.38
2019-05-25T11:36:01.877Z,35.28
2019-05-25T11:38:31.358Z,40.03
2019-05-25T11:41:00.863Z,33.47
2019-05-25T11:43:49.690Z,40.05
2019-05-25T11:46:31.747Z,47.96
2019-05-25T11:49:01.270Z,42.12
2019-05-25T11:51:30.783Z,42.54
2019-05-25T11:54:00.278Z,46.31
2019-05-25T11:56:29.782Z,43.03
2019-05-25T11:58:59.269Z,56.91
2019-05-25T12:01:28.761Z,64.40
2019-05-25T12:03:58.251Z,46.89
2019-05-25T12:06:27.745Z,53.56
2019-05-25T12:08:57.237Z,52.34
2019-05-25T12:11:26.710Z,52.65
2019-05-25T12:13:56.223Z,50.12
2019-05-25T12:16:25.704Z,48.88
2019-05-25T12:18:55.209Z,49.22
2019-05-25T12:21:24.705Z,49.42
2019-05-25T12:23:54.211Z,58.77
2019-05-25T12:26:23.702Z,57.97
2019-05-25T12:28:53.187Z,59.25
2019-05-25T12:31:22.694Z,53.05
2019-05-25T12:33:52.175Z,57.51
2019-05-25T12:36:21.641Z,58.83
2019-05-25T12:38:51.142Z,57.69
2019-05-25T12:41:20.701Z,54.37
2019-05-25T12:43:50.252Z,58.11
2019-05-25T12:46:19.749Z,60.09
2019-05-25T12:48:49.245Z,67.95
2019-05-25T12:51:18.750Z,67.53
2019-05-25T12:53:48.251Z,62.26
2019-05-25T12:56:17.771Z,68.17
2019-05-25T12:58:50.016Z,64.48
2019-05-25T13:01:18.549Z,69.63
2019-05-25T13:03:48.058Z,65.46
2019-05-25T13:06:18.336Z,75.40
2019-05-25T13:08:48.000Z,67.33
2019-05-25T13:11:17.506Z,71.61
2019-05-25T13:13:47.024Z,81.79
2019-05-25T13:16:16.526Z,89.10
2019-05-25T13:18:46.007Z,95.77
2019-05-25T13:21:16.237Z,100.00
2019-05-25T13:23:45.728Z,99.70
2019-05-25T13:26:15.214Z,96.11
2019-05-25T13:28:44.710Z,100.00
2019-05-25T13:31:14.213Z,100.00
2019-05-25T13:33:44.505Z,100.00
2019-05-25T13:36:14.013Z,100.00
2019-05-25T13:38:43.500Z,100.00
2019-05-25T13:41:12.985Z,100.00
2019-05-25T13:43:42.491Z,100.00
2019-05-25T13:46:12.819Z,100.00
2019-05-25T13:48:42.394Z,100.00
2019-05-25T13:51:11.899Z,100.00
2019-05-25T13:53:41.388Z,100.00
2019-05-25T13:56:10.891Z,100.00
2019-05-25T13:58:41.119Z,100.00
2019-05-25T14:01:49.048Z,100.00
2019-05-25T14:04:18.573Z,100.00
2019-05-25T14:06:48.096Z,100.00
2019-05-25T14:09:17.575Z,100.00
2019-05-25T14:11:47.068Z,100.00
2019-05-25T14:14:16.573Z,100.00
2019-05-25T14:16:46.079Z,100.00
2019-05-25T14:19:15.589Z,100.00
2019-05-25T14:21:45.101Z,100.00
2019-05-25T14:24:14.606Z,100.00
2019-05-25T14:26:44.098Z,100.00
2019-05-25T14:29:13.588Z,100.00
2019-05-25T14:31:45.931Z,100.00
2019-05-25T14:34:14.310Z,100.00
2019-05-25T14:36:43.801Z,100.00
2019-05-25T14:39:13.729Z,100.00
2019-05-25T14:41:43.281Z,100.00
2019-05-25T14:44:12.773Z,100.00
2019-05-25T14:46:42.943Z,100.00
2019-05-25T14:49:12.611Z,100.00
2019-05-25T14:51:42.101Z,100.00
2019-05-25T14:54:11.611Z,100.00
2019-05-25T14:56:41.086Z,100.00
2019-05-25T14:59:10.587Z,100.00
2019-05-25T15:01:40.106Z,100.00
2019-05-25T15:04:10.260Z,100.00
2019-05-25T15:06:39.729Z,100.00
2019-05-25T15:09:09.305Z,100.00
2019-05-25T15:11:58.144Z,100.00
2019-05-25T15:14:46.990Z,100.00
2019-05-25T15:17:16.484Z,100.00
2019-05-25T15:19:45.960Z,100.00
2019-05-25T15:22:15.534Z,100.00
2019-05-25T15:24:45.004Z,100.00
2019-05-25T15:27:14.515Z,100.00
2019-05-25T15:29:44.004Z,100.00
2019-05-25T15:32:19.958Z,100.00
2019-05-25T15:34:46.558Z,100.00
2019-05-25T15:37:16.137Z,100.00
2019-05-25T15:39:45.635Z,100.00
2019-05-25T15:42:15.131Z,100.00
2019-05-25T15:44:44.615Z,100.00
2019-05-25T15:47:14.117Z,100.00
2019-05-25T15:49:43.596Z,100.00
2019-05-25T15:52:13.164Z,100.00
2019-05-25T15:54:42.719Z,100.00
2019-05-25T15:57:12.194Z,100.00
2019-05-25T15:59:41.706Z,100.00
2019-05-25T16:02:11.542Z,100.00
2019-05-25T16:04:41.024Z,100.00
2019-05-25T16:07:10.522Z,100.00
2019-05-25T16:09:40.012Z,100.00
2019-05-25T16:12:09.500Z,100.00
2019-05-25T16:14:39.015Z,100.00
2019-05-25T16:17:08.497Z,100.00
2019-05-25T16:19:38.003Z,100.00
2019-05-25T16:22:07.502Z,100.00
2019-05-25T16:24:36.985Z,100.00
2019-05-25T16:27:06.494Z,100.00
2019-05-25T16:29:35.969Z,100.00
2019-05-25T16:32:05.555Z,100.00
2019-05-25T16:34:35.031Z,100.00
2019-05-25T16:37:04.742Z,100.00
2019-05-25T16:39:34.246Z,100.00
2019-05-25T16:42:03.830Z,100.00
2019-05-25T16:44:33.393Z,100.00
2019-05-25T16:47:02.902Z,100.00
2019-05-25T16:49:32.411Z,100.00
2019-05-25T16:52:01.903Z,100.00
2019-05-25T16:54:31.476Z,100.00
2019-05-25T16:57:00.987Z,100.00
2019-05-25T16:59:30.481Z,100.00
2019-05-25T17:02:00.019Z,100.00
2019-05-25T17:04:29.504Z,100.00
2019-05-25T17:06:59.011Z,100.00
2019-05-25T17:09:28.509Z,100.00
2019-05-25T17:11:58.001Z,100.00
2019-05-25T17:14:27.512Z,100.00
2019-05-25T17:16:57.013Z,100.00
2019-05-25T17:19:26.533Z,100.00
2019-05-25T17:21:56.039Z,100.00
2019-05-25T17:24:25.514Z,100.00
2019-05-25T17:26:55.044Z,100.00
2019-05-25T17:29:24.534Z,100.00
2019-05-25T17:31:54.015Z,100.00
2019-05-25T17:34:23.513Z,100.00
2019-05-25T17:36:54.253Z,100.00
2019-05-25T17:39:23.743Z,100.00
2019-05-25T17:41:53.240Z,100.00
2019-05-25T17:44:22.798Z,100.00
2019-05-25T17:46:52.299Z,100.00
2019-05-25T17:49:22.918Z,100.00
2019-05-25T17:51:52.391Z,100.00
2019-05-25T17:54:21.893Z,100.00
2019-05-25T17:56:51.377Z,100.00
2019-05-25T17:59:20.879Z,100.00
2019-05-25T18:01:50.424Z,100.00
2019-05-25T18:04:19.919Z,100.00
2019-05-25T18:06:49.392Z,100.00
2019-05-25T18:09:18.900Z,100.00
2019-05-25T18:11:49.159Z,100.00
2019-05-25T18:14:19.407Z,100.00
2019-05-25T18:16:48.877Z,100.00
2019-05-25T18:19:18.380Z,100.00
2019-05-25T18:21:47.868Z,100.00
2019-05-25T18:24:17.455Z,100.00
2019-05-25T18:26:47.748Z,100.00
2019-05-25T18:29:17.226Z,100.00
2019-05-25T18:31:46.724Z,100.00
2019-05-25T18:34:21.944Z,100.00
2019-05-25T18:37:06.791Z,100.00
2019-05-25T18:39:55.639Z,100.00
2019-05-25T18:42:25.181Z,100.00
2019-05-25T18:44:54.666Z,100.00
2019-05-25T18:47:24.165Z,100.00
2019-05-25T18:49:53.859Z,100.00
2019-05-25T18:52:23.397Z,100.00
2019-05-25T18:54:52.867Z,100.00
2019-05-25T18:57:22.364Z,100.00
2019-05-25T18:59:51.877Z,100.00
2019-05-25T19:02:21.357Z,100.00
2019-05-25T19:04:59.541Z,100.00
2019-05-25T19:07:22.121Z,100.00
2019-05-25T19:09:51.655Z,100.00
2019-05-25T19:12:21.161Z,100.00
2019-05-25T19:14:50.658Z,100.00
2019-05-25T19:17:20.220Z,100.00
2019-05-25T19:19:49.713Z,100.00
2019-05-25T19:22:19.204Z,100.00
2019-05-25T19:24:48.714Z,100.00
2019-05-25T19:27:18.234Z,100.00
2019-05-25T19:29:47.717Z,100.00
2019-05-25T19:32:18.154Z,100.00
2019-05-25T19:34:59.006Z,100.00
2019-05-25T19:37:19.584Z,100.00
2019-05-25T19:39:49.183Z,100.00
2019-05-25T19:42:18.693Z,100.00
2019-05-25T19:44:48.193Z,100.00
2019-05-25T19:47:17.704Z,100.00
2019-05-25T19:49:47.179Z,100.00
2019-05-25T19:52:16.664Z,100.00
2019-05-25T19:54:46.160Z,100.00
2019-05-25T19:57:15.654Z,100.00
2019-05-25T19:59:45.143Z,100.00
2019-05-25T20:02:14.673Z,100.00
2019-05-25T20:04:44.162Z,100.00
2019-05-25T20:07:13.657Z,100.00
2019-05-25T20:09:43.159Z,100.00
2019-05-25T20:12:12.656Z,100.00
2019-05-25T20:14:42.168Z,100.00
2019-05-25T20:17:11.678Z,100.00
2019-05-25T20:19:41.196Z,100.00
2019-05-25T20:22:11.228Z,100.00
2019-05-25T20:24:40.778Z,100.00
2019-05-25T20:27:10.251Z,100.00
2019-05-25T20:29:39.745Z,100.00
2019-05-25T20:32:09.263Z,100.00
2019-05-25T20:34:39.575Z,100.00
2019-05-25T20:37:09.063Z,100.00
2019-05-25T20:39:38.567Z,100.00
2019-05-25T20:42:08.074Z,100.00
2019-05-25T20:44:37.566Z,100.00
2019-05-25T20:47:08.095Z,100.00
2019-05-25T20:49:37.586Z,100.00
2019-05-25T20:52:07.131Z,100.00
2019-05-25T20:54:36.646Z,100.00
2019-05-25T20:57:06.234Z,100.00
2019-05-25T20:59:36.478Z,100.00
2019-05-25T21:02:06.154Z,100.00
2019-05-25T21:04:35.656Z,100.00
2019-05-25T21:07:05.201Z,100.00
2019-05-25T21:09:34.722Z,100.00
2019-05-25T21:12:04.872Z,100.00
2019-05-25T21:14:34.351Z,100.00
2019-05-25T21:17:03.919Z,100.00
2019-05-25T21:19:33.413Z,100.00
2019-05-25T21:22:02.995Z,100.00
2019-05-25T21:24:32.499Z,100.00
2019-05-25T21:27:02.033Z,100.00
2019-05-25T21:29:31.505Z,100.00
2019-05-25T21:32:01.014Z,100.00
2019-05-25T21:34:30.591Z,100.00
2019-05-25T21:37:01.342Z,100.00
2019-05-25T21:39:30.861Z,100.00
2019-05-25T21:42:00.363Z,100.00
2019-05-25T21:44:29.870Z,100.00
2019-05-25T21:46:59.360Z,100.00
2019-05-25T21:49:30.128Z,100.00
2019-05-25T21:51:59.719Z,100.00
2019-05-25T21:54:29.220Z,100.00
2019-05-25T21:56:58.703Z,100.00
2019-05-25T21:59:28.217Z,100.00
2019-05-25T22:01:58.976Z,100.00
2019-05-25T22:04:28.449Z,100.00
2019-05-25T22:06:58.013Z,100.00
2019-05-25T22:09:27.519Z,100.00
2019-05-25T22:11:57.021Z,100.00
2019-05-25T22:14:27.752Z,100.00
2019-05-25T22:16:57.266Z,100.00
2019-05-25T22:19:26.783Z,100.00
2019-05-25T22:21:56.283Z,100.00
2019-05-25T22:24:57.542Z,100.00
2019-05-25T22:27:27.055Z,100.00
2019-05-25T22:29:56.548Z,100.00
2019-05-25T22:32:26.034Z,100.00
2019-05-25T22:34:55.844Z,100.00
2019-05-25T22:37:25.335Z,100.00
2019-05-25T22:39:54.841Z,100.00
2019-05-25T22:42:43.668Z,100.00
2019-05-25T22:45:13.512Z,100.00
2019-05-25T22:47:43.018Z,100.00
2019-05-25T22:50:13.046Z,100.00
2019-05-25T22:52:42.555Z,100.00
2019-05-25T22:55:12.381Z,100.00
2019-05-25T22:57:41.873Z,100.00
2019-05-25T23:00:11.748Z,100.00
2019-05-25T23:02:41.218Z,100.00
2019-05-25T23:05:11.125Z,100.00
2019-05-25T23:07:40.621Z,100.00
2019-05-25T23:10:10.637Z,100.00
2019-05-25T23:12:40.126Z,100.00
2019-05-25T23:15:10.059Z,100.00
2019-05-25T23:17:39.843Z,100.00
2019-05-25T23:20:09.834Z,100.00
2019-05-25T23:22:39.391Z,100.00
2019-05-25T23:25:09.133Z,100.00
2019-05-25T23:27:38.628Z,100.00
2019-05-25T23:30:08.959Z,100.00
2019-05-25T23:32:38.528Z,100.00
2019-05-25T23:35:08.342Z,100.00
2019-05-25T23:37:37.916Z,100.00
2019-05-25T23:40:08.811Z,100.00
2019-05-25T23:42:38.317Z,100.00
2019-05-25T23:45:08.260Z,100.00
2019-05-25T23:47:37.749Z,100.00
2019-05-25T23:50:08.162Z,100.00
2019-05-25T23:52:37.650Z,100.00
2019-05-25T23:55:10.497Z,100.00
2019-05-25T23:57:59.321Z,100.00
